createdAt,value
2022-08-08T00:00:52.729Z,1.10
2022-08-08T00:02:43.728Z,1.02
2022-08-08T00:04:55.610Z,1.30
2022-08-08T00:07:12.505Z,1.20
2022-08-08T00:09:24.643Z,1.10
2022-08-08T00:11:47.049Z,1.00
2022-08-08T00:14:47.641Z,1.10
2022-08-08T00:16:48.787Z,0.93
2022-08-08T00:19:00.713Z,1.00
2022-08-08T00:21:07.858Z,1.15
2022-08-08T00:23:18.281Z,1.10
2022-08-08T00:25:39.075Z,1.20
2022-08-08T00:27:54.718Z,1.20
2022-08-08T00:30:06.461Z,1.55
2022-08-08T00:32:34.237Z,1.10
2022-08-08T00:35:19.007Z,1.45
2022-08-08T00:37:47.276Z,1.35
2022-08-08T00:41:06.971Z,1.20
2022-08-08T00:43:19.456Z,1.20
2022-08-08T00:45:59.969Z,1.40
2022-08-08T00:48:43.682Z,0.77
2022-08-08T00:51:39.045Z,1.13
2022-08-08T00:54:15.713Z,1.10
2022-08-08T00:56:58.480Z,0.93
2022-08-08T00:59:44.472Z,1.20
2022-08-08T01:03:57.338Z,1.13
2022-08-08T01:05:10.282Z,0.90
2022-08-08T01:08:28.900Z,0.95
2022-08-08T01:11:11.379Z,1.05
2022-08-08T01:13:52.828Z,1.10
2022-08-08T01:16:37.385Z,1.10
2022-08-08T01:19:41.876Z,1.30
2022-08-08T01:22:33.152Z,1.25
2022-08-08T01:25:26.281Z,1.33
2022-08-08T01:28:04.329Z,1.13
2022-08-08T01:30:45.863Z,1.20
2022-08-08T01:33:43.263Z,1.33
2022-08-08T01:36:39.362Z,1.20
2022-08-08T01:39:09.499Z,1.05
2022-08-08T01:41:43.827Z,1.02
2022-08-08T01:43:55.656Z,1.13
2022-08-08T01:46:27.306Z,1.00
2022-08-08T01:48:48.237Z,1.08
2022-08-08T01:51:06.194Z,1.23
2022-08-08T01:54:19.869Z,1.40
2022-08-08T01:56:34.216Z,1.10
2022-08-08T01:58:48.795Z,1.15
2022-08-08T02:01:16.049Z,1.15
2022-08-08T02:03:56.210Z,1.40
2022-08-08T02:06:32.880Z,1.30
2022-08-08T02:08:56.025Z,1.20
2022-08-08T02:11:23.055Z,0.95
2022-08-08T02:13:53.212Z,1.17
2022-08-08T02:16:10.379Z,1.40
2022-08-08T02:18:35.791Z,1.40
2022-08-08T02:21:13.438Z,1.20
2022-08-08T02:23:32.293Z,1.35
2022-08-08T02:25:50.729Z,1.20
2022-08-08T02:28:05.172Z,1.25
2022-08-08T02:30:21.716Z,1.45
2022-08-08T02:32:47.922Z,0.98
2022-08-08T02:35:29.012Z,1.52
2022-08-08T02:38:09.331Z,1.10
2022-08-08T02:40:22.369Z,1.10
2022-08-08T02:44:39.378Z,1.13
2022-08-08T02:46:28.647Z,1.27
2022-08-08T02:49:13.578Z,1.15
2022-08-08T02:51:59.078Z,1.15
2022-08-08T02:54:45.134Z,1.30
2022-08-08T02:57:21.003Z,1.30
2022-08-08T03:00:26.958Z,1.40
2022-08-08T03:03:03.383Z,1.60
2022-08-08T03:05:46.525Z,1.60
2022-08-08T03:08:27.644Z,1.20
2022-08-08T03:11:47.778Z,1.30
2022-08-08T03:16:00.419Z,1.50
2022-08-08T03:16:48.687Z,1.48
2022-08-08T03:19:17.897Z,1.30
2022-08-08T03:21:26.983Z,1.70
2022-08-08T03:23:56.629Z,1.90
2022-08-08T03:26:05.646Z,1.30
2022-08-08T03:28:18.857Z,1.80
2022-08-08T03:30:26.560Z,1.95
2022-08-08T03:33:00.059Z,1.52
2022-08-08T03:35:15.766Z,1.65
2022-08-08T03:38:54.684Z,1.55
2022-08-08T03:40:00.036Z,1.55
2022-08-08T03:42:27.599Z,1.38
2022-08-08T03:44:35.339Z,1.83
2022-08-08T03:46:47.936Z,1.55
2022-08-08T03:49:09.800Z,1.40
2022-08-08T03:51:26.556Z,1.42
2022-08-08T03:53:47.804Z,1.42
2022-08-08T03:56:04.389Z,1.90
2022-08-08T03:58:34.083Z,1.65
2022-08-08T04:01:01.608Z,1.20
2022-08-08T04:03:11.540Z,1.33
2022-08-08T04:05:19.597Z,1.85
2022-08-08T04:07:27.765Z,1.83
2022-08-08T04:09:58.925Z,1.52
2022-08-08T04:12:06.206Z,1.40
2022-08-08T04:14:33.821Z,1.90
2022-08-08T04:16:41.408Z,2.00
2022-08-08T04:18:50.961Z,1.40
2022-08-08T04:20:59.805Z,2.05
2022-08-08T04:23:07.921Z,1.90
2022-08-08T04:25:15.563Z,1.67
2022-08-08T04:28:02.346Z,1.60
2022-08-08T04:29:55.283Z,1.70
2022-08-08T04:32:07.178Z,2.10
2022-08-08T04:34:13.221Z,1.83
2022-08-08T04:36:18.868Z,1.70
2022-08-08T04:38:25.945Z,1.90
2022-08-08T04:40:35.317Z,1.88
2022-08-08T04:42:46.698Z,1.80
2022-08-08T04:45:02.358Z,1.85
2022-08-08T04:47:11.846Z,2.15
2022-08-08T04:49:17.746Z,2.22
2022-08-08T04:51:28.164Z,1.77
2022-08-08T04:54:27.144Z,1.58
2022-08-08T04:56:14.674Z,1.30
2022-08-08T04:58:22.532Z,1.50
2022-08-08T05:00:28.348Z,1.83
2022-08-08T05:02:33.940Z,1.63
2022-08-08T05:04:40.495Z,1.40
2022-08-08T05:06:52.062Z,1.45
2022-08-08T05:09:02.733Z,1.35
2022-08-08T05:11:22.694Z,1.92
2022-08-08T05:13:33.818Z,1.60
2022-08-08T05:16:51.361Z,1.60
2022-08-08T05:18:03.676Z,1.67
2022-08-08T05:20:15.149Z,1.67
2022-08-08T05:22:21.183Z,1.70
2022-08-08T05:24:27.914Z,1.40
2022-08-08T05:26:36.557Z,1.83
2022-08-08T05:28:56.124Z,1.55
2022-08-08T05:31:19.317Z,1.90
2022-08-08T05:33:28.300Z,1.77
2022-08-08T05:35:53.168Z,1.88
2022-08-08T05:38:03.644Z,1.40
2022-08-08T05:40:27.589Z,1.70
2022-08-08T05:42:40.782Z,1.60
2022-08-08T05:44:52.578Z,1.45
2022-08-08T05:47:03.121Z,1.40
2022-08-08T05:49:11.504Z,1.63
2022-08-08T05:51:19.130Z,1.50
2022-08-08T05:54:24.379Z,1.25
2022-08-08T05:56:07.628Z,1.40
2022-08-08T05:58:19.910Z,1.48
2022-08-08T06:00:34.136Z,2.00
2022-08-08T06:02:55.919Z,1.40
2022-08-08T06:05:34.005Z,1.30
2022-08-08T06:07:30.465Z,1.80
2022-08-08T06:09:59.209Z,1.10
2022-08-08T06:12:04.215Z,1.20
2022-08-08T06:14:12.874Z,1.40
2022-08-08T06:16:30.596Z,1.40
2022-08-08T06:18:43.993Z,1.45
2022-08-08T06:20:50.767Z,1.45
2022-08-08T06:23:01.243Z,1.63
2022-08-08T06:25:16.339Z,1.25
2022-08-08T06:27:30.938Z,1.30
2022-08-08T06:29:56.791Z,1.17
2022-08-08T06:32:17.566Z,1.05
2022-08-08T06:34:32.523Z,1.30
2022-08-08T06:36:53.894Z,1.08
2022-08-08T06:39:06.826Z,1.10
2022-08-08T06:41:15.401Z,1.13
2022-08-08T06:43:34.138Z,1.35
2022-08-08T06:45:51.184Z,1.15
2022-08-08T06:48:01.189Z,0.63
2022-08-08T06:50:17.387Z,1.00
2022-08-08T06:52:27.761Z,0.90
2022-08-08T06:54:35.428Z,0.98
2022-08-08T06:56:42.002Z,1.17
2022-08-08T06:58:56.129Z,0.80
2022-08-08T07:01:11.562Z,0.75
2022-08-08T07:04:35.795Z,0.63
2022-08-08T07:06:11.983Z,0.82
2022-08-08T07:08:20.930Z,1.10
2022-08-08T07:10:28.563Z,0.88
2022-08-08T07:12:43.821Z,1.13
2022-08-08T07:15:04.948Z,0.82
2022-08-08T07:17:19.975Z,0.93
2022-08-08T07:19:41.909Z,1.20
2022-08-08T07:22:04.977Z,1.02
2022-08-08T07:24:19.875Z,0.80
2022-08-08T07:26:37.939Z,0.90
2022-08-08T07:28:46.205Z,1.00
2022-08-08T07:30:52.815Z,1.40
2022-08-08T07:32:59.607Z,0.90
2022-08-08T07:35:11.134Z,1.10
2022-08-08T07:37:24.842Z,0.93
2022-08-08T07:39:55.827Z,1.42
2022-08-08T07:42:04.798Z,0.90
2022-08-08T07:44:37.841Z,0.93
2022-08-08T07:48:47.443Z,0.90
2022-08-08T07:50:59.008Z,0.90
2022-08-08T07:53:52.344Z,0.88
2022-08-08T07:55:41.630Z,1.20
2022-08-08T07:57:54.251Z,1.05
2022-08-08T08:00:15.835Z,0.90
2022-08-08T08:02:38.703Z,1.05
2022-08-08T08:04:52.380Z,1.30
2022-08-08T08:07:02.647Z,1.00
2022-08-08T08:09:11.837Z,1.20
2022-08-08T08:11:21.022Z,1.00
2022-08-08T08:14:05.900Z,1.38
2022-08-08T08:16:04.363Z,0.90
2022-08-08T08:18:14.345Z,1.42
2022-08-08T08:20:29.688Z,0.80
2022-08-08T08:22:38.410Z,1.10
2022-08-08T08:24:46.958Z,1.00
2022-08-08T08:26:55.484Z,0.80
2022-08-08T08:29:02.455Z,0.90
2022-08-08T08:31:12.108Z,0.70
2022-08-08T08:33:17.975Z,0.88
2022-08-08T08:35:29.921Z,3.10
2022-08-08T08:38:15.578Z,1.73
2022-08-08T08:40:19.630Z,1.00
2022-08-08T08:42:31.487Z,0.70
2022-08-08T08:44:43.809Z,0.90
2022-08-08T08:46:58.476Z,0.70
2022-08-08T08:49:05.213Z,1.00
2022-08-08T08:51:15.404Z,0.80
2022-08-08T08:53:54.991Z,0.70
2022-08-08T08:55:54.205Z,1.02
2022-08-08T08:58:02.017Z,0.55
2022-08-08T09:00:15.528Z,1.08
2022-08-08T09:02:27.121Z,0.80
2022-08-08T09:04:43.410Z,1.05
2022-08-08T09:06:57.708Z,0.80
2022-08-08T09:09:25.918Z,0.93
2022-08-08T09:11:47.646Z,0.73
2022-08-08T09:14:11.634Z,0.80
2022-08-08T09:16:19.073Z,0.95
2022-08-08T09:18:25.534Z,0.60
2022-08-08T09:21:57.183Z,0.60
2022-08-08T09:22:58.635Z,0.60
2022-08-08T09:25:09.591Z,0.70
2022-08-08T09:27:20.466Z,0.70
2022-08-08T09:29:29.953Z,0.80
2022-08-08T09:31:55.952Z,0.40
2022-08-08T09:34:31.159Z,0.80
2022-08-08T09:36:32.798Z,0.93
2022-08-08T09:38:53.266Z,0.60
2022-08-08T09:41:07.246Z,0.90
2022-08-08T09:43:24.023Z,0.88
2022-08-08T09:46:03.210Z,0.68
2022-08-08T09:48:17.841Z,0.80
2022-08-08T09:50:28.245Z,0.90
2022-08-08T09:53:10.332Z,0.85
2022-08-08T09:54:59.834Z,0.60
2022-08-08T09:57:16.962Z,0.85
2022-08-08T10:00:02.358Z,0.90
2022-08-08T10:01:58.167Z,0.70
2022-08-08T10:04:10.420Z,1.08
2022-08-08T10:06:19.390Z,0.80
2022-08-08T10:08:34.801Z,0.73
2022-08-08T10:10:50.979Z,1.08
2022-08-08T10:13:00.502Z,0.63
2022-08-08T10:15:19.566Z,0.60
2022-08-08T10:17:57.528Z,0.60
2022-08-08T10:19:58.195Z,0.80
2022-08-08T10:22:05.943Z,0.88
2022-08-08T10:24:29.592Z,0.60
2022-08-08T10:26:58.870Z,0.70
2022-08-08T10:29:11.406Z,0.80
2022-08-08T10:31:47.379Z,0.77
2022-08-08T10:34:20.286Z,0.85
2022-08-08T10:36:27.227Z,0.95
2022-08-08T10:38:37.327Z,0.80
2022-08-08T10:40:47.535Z,0.75
2022-08-08T10:42:58.300Z,0.50
2022-08-08T10:45:10.115Z,0.80
2022-08-08T10:47:16.219Z,0.93
2022-08-08T10:50:00.554Z,0.93
2022-08-08T10:51:52.674Z,0.90
2022-08-08T10:54:01.934Z,0.70
2022-08-08T10:56:07.604Z,0.80
2022-08-08T10:58:13.803Z,0.80
2022-08-08T11:00:28.510Z,1.00
2022-08-08T11:02:36.153Z,0.80
2022-08-08T11:04:53.383Z,1.13
2022-08-08T11:07:02.612Z,0.50
2022-08-08T11:09:14.925Z,0.40
2022-08-08T11:11:59.759Z,0.80
2022-08-08T11:13:52.049Z,0.60
2022-08-08T11:16:11.528Z,0.68
2022-08-08T11:18:36.473Z,0.90
2022-08-08T11:20:42.924Z,0.70
2022-08-08T11:22:59.424Z,0.90
2022-08-08T11:25:13.862Z,1.17
2022-08-08T11:27:23.388Z,0.90
2022-08-08T11:29:51.236Z,0.70
2022-08-08T11:32:03.878Z,0.57
2022-08-08T11:34:22.736Z,0.70
2022-08-08T11:36:30.860Z,0.50
2022-08-08T11:38:43.362Z,0.95
2022-08-08T11:40:59.601Z,0.90
2022-08-08T11:43:05.147Z,0.60
2022-08-08T11:45:12.066Z,0.80
2022-08-08T11:47:39.958Z,0.80
2022-08-08T11:49:52.382Z,0.90
2022-08-08T11:51:58.336Z,0.90
2022-08-08T11:54:04.089Z,0.52
2022-08-08T11:56:10.226Z,0.60
2022-08-08T11:58:15.789Z,0.60
2022-08-08T12:00:21.485Z,1.00
2022-08-08T12:02:33.448Z,0.60
2022-08-08T12:04:40.575Z,1.00
2022-08-08T12:06:45.555Z,0.80
2022-08-08T12:08:54.241Z,0.80
2022-08-08T12:11:03.379Z,0.60
2022-08-08T12:13:10.687Z,0.70
2022-08-08T12:15:27.849Z,0.55
2022-08-08T12:17:41.020Z,0.77
2022-08-08T12:19:59.699Z,0.60
2022-08-08T12:22:13.500Z,0.93
2022-08-08T12:24:28.367Z,1.13
2022-08-08T12:26:41.474Z,0.73
2022-08-08T12:28:57.090Z,1.58
2022-08-08T12:33:37.733Z,1.08
2022-08-08T12:35:53.019Z,0.77
2022-08-08T12:38:09.023Z,0.60
2022-08-08T12:40:23.458Z,0.65
2022-08-08T12:44:41.234Z,0.70
2022-08-08T12:46:59.428Z,0.90
2022-08-08T12:49:25.018Z,0.60
2022-08-08T12:51:49.986Z,0.60
2022-08-08T12:54:01.129Z,0.73
2022-08-08T12:56:18.789Z,0.90
2022-08-08T12:58:25.300Z,1.08
2022-08-08T13:00:33.754Z,1.23
2022-08-08T13:02:42.195Z,0.80
2022-08-08T13:05:01.050Z,1.02
2022-08-08T13:07:16.649Z,0.60
2022-08-08T13:09:33.022Z,0.85
2022-08-08T13:12:27.465Z,0.82
2022-08-08T13:14:11.403Z,0.60
2022-08-08T13:16:20.674Z,0.40
2022-08-08T13:18:27.723Z,0.52
2022-08-08T13:20:36.262Z,0.65
2022-08-08T13:22:51.561Z,1.00
2022-08-08T13:25:05.203Z,0.90
2022-08-08T13:27:12.662Z,0.70
2022-08-08T13:29:18.038Z,0.80
2022-08-08T13:31:26.053Z,0.70
2022-08-08T13:33:42.012Z,0.70
2022-08-08T13:35:50.948Z,0.60
2022-08-08T13:38:06.510Z,0.68
2022-08-08T13:40:18.032Z,0.90
2022-08-08T13:42:32.505Z,0.70
2022-08-08T13:44:38.779Z,0.65
2022-08-08T13:46:57.593Z,1.65
2022-08-08T13:50:33.466Z,0.82
2022-08-08T13:51:37.980Z,0.55
2022-08-08T13:54:00.579Z,0.70
2022-08-08T13:56:11.371Z,0.80
2022-08-08T13:58:21.583Z,0.57
2022-08-08T14:00:26.890Z,0.60
2022-08-08T14:02:33.000Z,0.90
2022-08-08T14:04:49.341Z,0.80
2022-08-08T14:07:07.135Z,1.00
2022-08-08T14:09:24.279Z,0.70
2022-08-08T14:11:36.918Z,0.70
2022-08-08T14:13:59.946Z,1.02
2022-08-08T14:16:15.975Z,1.00
2022-08-08T14:18:34.695Z,0.70
2022-08-08T14:20:55.915Z,1.15
2022-08-08T14:23:21.248Z,0.90
2022-08-08T14:25:46.487Z,0.60
2022-08-08T14:27:59.929Z,0.80
2022-08-08T14:30:17.790Z,0.70
2022-08-08T14:32:30.062Z,0.75
2022-08-08T14:34:37.210Z,1.10
2022-08-08T14:36:53.473Z,0.55
2022-08-08T14:39:02.770Z,0.70
2022-08-08T14:41:53.922Z,0.50
2022-08-08T14:44:10.168Z,0.57
2022-08-08T14:46:16.954Z,0.80
2022-08-08T14:48:34.099Z,1.17
2022-08-08T14:50:39.955Z,0.70
2022-08-08T14:52:49.204Z,0.98
2022-08-08T14:54:56.686Z,0.80
2022-08-08T14:57:04.148Z,0.70
2022-08-08T14:59:31.624Z,0.52
2022-08-08T15:01:37.298Z,0.80
2022-08-08T15:03:53.366Z,0.88
2022-08-08T15:05:59.202Z,1.20
2022-08-08T15:08:04.182Z,0.90
2022-08-08T15:10:16.402Z,0.90
2022-08-08T15:12:27.127Z,0.90
2022-08-08T15:14:32.590Z,0.60
2022-08-08T15:16:38.539Z,1.05
2022-08-08T15:18:51.476Z,0.70
2022-08-08T15:20:56.919Z,0.60
2022-08-08T15:23:02.361Z,0.63
2022-08-08T15:25:17.971Z,0.98
2022-08-08T15:28:03.578Z,1.05
2022-08-08T15:30:01.949Z,1.00
2022-08-08T15:32:19.489Z,0.98
2022-08-08T15:34:31.638Z,0.60
2022-08-08T15:36:37.363Z,0.65
2022-08-08T15:38:49.777Z,0.90
2022-08-08T15:40:55.764Z,0.80
2022-08-08T15:43:18.522Z,0.60
2022-08-08T15:45:29.830Z,0.60
2022-08-08T15:47:35.421Z,0.60
2022-08-08T15:49:41.328Z,0.80
2022-08-08T15:51:46.316Z,1.10
2022-08-08T15:53:51.583Z,0.90
2022-08-08T15:55:57.274Z,0.80
2022-08-08T15:58:06.660Z,0.85
2022-08-08T16:00:26.254Z,0.95
2022-08-08T16:02:33.478Z,0.88
2022-08-08T16:04:39.279Z,0.90
2022-08-08T16:06:48.692Z,1.23
2022-08-08T16:13:00.142Z,1.40
2022-08-08T16:13:08.887Z,0.80
2022-08-08T16:13:49.299Z,1.02
2022-08-08T16:16:09.012Z,0.80
2022-08-08T16:18:17.728Z,0.80
2022-08-08T16:20:24.723Z,0.70
2022-08-08T16:22:34.725Z,0.60
2022-08-08T16:24:42.018Z,0.63
2022-08-08T16:26:50.669Z,0.55
2022-08-08T16:28:58.424Z,0.80
2022-08-08T16:31:06.473Z,1.20
2022-08-08T16:33:13.765Z,0.80
2022-08-08T16:35:23.153Z,0.90
2022-08-08T16:37:28.276Z,0.95
2022-08-08T16:40:01.312Z,1.15
2022-08-08T16:42:00.939Z,1.10
2022-08-08T16:44:12.612Z,1.17
2022-08-08T16:46:39.335Z,0.98
2022-08-08T16:48:42.631Z,0.95
2022-08-08T16:55:04.694Z,1.23
2022-08-08T16:55:54.428Z,0.80
2022-08-08T16:58:13.867Z,1.50
2022-08-08T17:00:13.360Z,1.00
2022-08-08T17:02:38.612Z,0.93
2022-08-08T17:04:44.293Z,0.93
2022-08-08T17:06:50.003Z,0.80
2022-08-08T17:11:10.749Z,1.05
2022-08-08T17:13:16.198Z,0.90
2022-08-08T17:15:24.236Z,0.75
2022-08-08T17:18:01.152Z,0.95
2022-08-08T17:19:54.148Z,0.77
2022-08-08T17:22:00.930Z,0.73
2022-08-08T17:24:10.673Z,1.10
2022-08-08T17:26:31.737Z,0.90
2022-08-08T17:30:43.967Z,0.75
2022-08-08T17:34:36.882Z,1.40
2022-08-08T17:35:54.092Z,1.23
2022-08-08T17:37:42.114Z,0.97
2022-08-08T17:40:05.654Z,1.00
2022-08-08T17:42:18.109Z,1.00
2022-08-08T17:44:23.321Z,0.75
2022-08-08T17:46:43.058Z,1.00
2022-08-08T17:48:48.663Z,1.23
2022-08-08T17:50:56.378Z,1.08
2022-08-08T17:53:01.217Z,0.85
2022-08-08T17:57:35.503Z,1.10
2022-08-08T17:59:46.019Z,1.25
2022-08-08T18:01:56.460Z,0.90
2022-08-08T18:04:01.350Z,1.20
2022-08-08T18:06:20.017Z,0.82
2022-08-08T18:08:38.187Z,1.10
2022-08-08T18:10:48.735Z,1.00
2022-08-08T18:12:53.816Z,0.85
2022-08-08T18:17:06.595Z,1.50
2022-08-08T18:19:23.674Z,1.40
2022-08-08T18:21:59.050Z,1.00
2022-08-08T18:23:56.002Z,1.35
2022-08-08T18:26:04.088Z,1.10
2022-08-08T18:28:13.448Z,1.10
2022-08-08T18:30:21.248Z,1.25
2022-08-08T18:32:29.593Z,1.33
2022-08-08T18:34:35.652Z,1.70
2022-08-08T18:36:40.551Z,1.67
2022-08-08T18:38:49.881Z,1.52
2022-08-08T18:40:55.021Z,2.03
2022-08-08T18:43:00.017Z,1.98
2022-08-08T18:45:09.384Z,2.10
2022-08-08T18:47:33.880Z,2.00
2022-08-08T18:49:57.243Z,2.20
2022-08-08T18:52:03.804Z,2.25
2022-08-08T18:54:22.017Z,2.42
2022-08-08T18:56:33.736Z,2.42
2022-08-08T18:58:40.457Z,2.00
2022-08-08T19:00:47.618Z,2.40
2022-08-08T19:03:06.306Z,2.53
2022-08-08T19:05:13.343Z,2.88
2022-08-08T19:07:18.369Z,2.63
2022-08-08T19:11:47.813Z,2.60
2022-08-08T19:13:57.264Z,2.45
2022-08-08T19:16:02.193Z,2.10
2022-08-08T19:18:32.078Z,2.05
2022-08-08T19:20:38.366Z,1.75
2022-08-08T19:22:44.576Z,1.40
2022-08-08T19:25:30.697Z,1.50
2022-08-08T19:27:14.807Z,1.45
2022-08-08T19:29:20.532Z,1.77
2022-08-08T19:31:31.039Z,1.33
2022-08-08T19:34:05.096Z,1.30
2022-08-08T19:36:08.290Z,1.40
2022-08-08T19:38:17.257Z,1.40
2022-08-08T19:40:30.899Z,1.23
2022-08-08T19:42:37.708Z,1.10
2022-08-08T19:44:46.252Z,1.38
2022-08-08T19:46:55.319Z,1.40
2022-08-08T19:49:04.197Z,1.50
2022-08-08T19:51:09.585Z,1.38
2022-08-08T19:53:46.932Z,1.40
2022-08-08T19:55:44.575Z,1.30
2022-08-08T19:57:52.872Z,1.40
2022-08-08T19:59:57.730Z,1.45
2022-08-08T20:02:04.705Z,1.60
2022-08-08T20:04:12.993Z,1.40
2022-08-08T20:06:19.525Z,1.30
2022-08-08T20:08:28.194Z,1.40
2022-08-08T20:10:36.576Z,1.33
2022-08-08T20:12:59.100Z,1.23
2022-08-08T20:15:16.566Z,1.42
2022-08-08T20:17:26.979Z,1.17
2022-08-08T20:19:42.214Z,1.10
2022-08-08T20:21:48.927Z,1.17
2022-08-08T20:23:57.933Z,1.20
2022-08-08T20:26:03.446Z,1.17
2022-08-08T20:30:52.475Z,1.50
2022-08-08T20:32:51.444Z,1.10
2022-08-08T20:35:03.173Z,0.90
2022-08-08T20:37:10.510Z,1.15
2022-08-08T20:39:15.606Z,1.73
2022-08-08T20:43:43.581Z,1.17
2022-08-08T20:45:58.184Z,1.15
2022-08-08T20:48:08.768Z,1.00
2022-08-08T20:50:16.693Z,1.23
2022-08-08T20:52:22.700Z,1.20
2022-08-08T20:54:29.226Z,1.42
2022-08-08T20:57:04.855Z,1.25
2022-08-08T20:59:00.656Z,1.50
2022-08-08T21:01:11.106Z,1.42
2022-08-08T21:03:25.263Z,1.45
2022-08-08T21:05:58.874Z,1.38
2022-08-08T21:08:33.413Z,1.45
2022-08-08T21:10:28.408Z,1.20
2022-08-08T21:12:37.866Z,1.23
2022-08-08T21:14:49.242Z,1.48
2022-08-08T21:16:54.186Z,1.40
2022-08-08T21:18:59.097Z,1.30
2022-08-08T21:21:20.676Z,2.00
2022-08-08T21:23:58.793Z,1.60
2022-08-08T21:26:05.117Z,1.92
2022-08-08T21:28:15.757Z,1.40
2022-08-08T21:30:22.231Z,1.17
2022-08-08T21:32:29.278Z,1.25
2022-08-08T21:34:34.112Z,1.40
2022-08-08T21:36:52.506Z,1.38
2022-08-08T21:38:58.094Z,1.58
2022-08-08T21:41:03.026Z,1.33
2022-08-08T21:43:08.158Z,1.35
2022-08-08T21:45:44.375Z,1.13
2022-08-08T21:48:05.443Z,1.40
2022-08-08T21:50:10.187Z,1.60
2022-08-08T21:54:33.263Z,1.25
2022-08-08T21:55:01.903Z,1.38
2022-08-08T21:57:09.395Z,1.33
2022-08-08T21:59:15.244Z,1.50
2022-08-08T22:01:27.885Z,1.50
2022-08-08T22:03:43.905Z,1.48
2022-08-08T22:05:58.321Z,1.40
2022-08-08T22:08:06.195Z,1.40
2022-08-08T22:10:18.116Z,1.40
2022-08-08T22:12:33.936Z,1.40
2022-08-08T22:14:42.598Z,1.30
2022-08-08T22:16:47.627Z,1.10
2022-08-08T22:18:56.066Z,1.05
2022-08-08T22:21:14.632Z,1.65
2022-08-08T22:23:25.429Z,1.48
2022-08-08T22:25:41.555Z,1.30
2022-08-08T22:28:02.991Z,1.77
2022-08-08T22:30:13.446Z,1.40
2022-08-08T22:32:19.193Z,1.63
2022-08-08T22:34:24.120Z,1.73
2022-08-08T22:36:32.361Z,1.48
2022-08-08T22:38:48.064Z,1.77
2022-08-08T22:40:54.010Z,2.22
2022-08-08T22:43:00.503Z,1.80
2022-08-08T22:45:12.449Z,1.70
2022-08-08T22:47:18.375Z,1.60
2022-08-08T22:49:23.241Z,2.17
2022-08-08T22:51:28.917Z,1.65
2022-08-08T22:54:34.177Z,1.70
2022-08-08T22:56:01.814Z,1.40
2022-08-08T22:58:08.616Z,1.80
2022-08-08T23:00:16.538Z,1.60
2022-08-08T23:02:21.458Z,1.80
2022-08-08T23:04:32.010Z,2.08
2022-08-08T23:06:39.839Z,1.80
2022-08-08T23:08:54.269Z,1.95
2022-08-08T23:11:05.813Z,1.88
2022-08-08T23:13:11.491Z,2.00
2022-08-08T23:16:41.798Z,1.90
2022-08-08T23:17:54.016Z,1.85
2022-08-08T23:19:59.453Z,1.70
2022-08-08T23:22:05.305Z,1.92
2022-08-08T23:24:10.241Z,1.70
2022-08-08T23:26:17.754Z,1.90
2022-08-08T23:28:22.630Z,1.60
2022-08-08T23:30:27.636Z,1.50
2022-08-08T23:32:33.211Z,1.85
2022-08-08T23:34:39.036Z,1.52
2022-08-08T23:36:57.902Z,1.63
2022-08-08T23:39:03.043Z,1.65
2022-08-08T23:41:22.993Z,1.55
2022-08-08T23:43:45.926Z,1.77
2022-08-08T23:49:00.082Z,1.40
2022-08-08T23:49:03.340Z,2.10
2022-08-08T23:50:42.279Z,1.50
2022-08-08T23:52:50.959Z,1.55
2022-08-08T23:55:07.153Z,1.65
2022-08-08T23:57:27.195Z,1.80
2022-08-08T23:59:47.183Z,2.20
